sensor_id;sensor_type;location;lat;lon;timestamp;pressure;altitude;pressure_sealevel;temperature;humidity
75551;BME280;65071;53.082;18.218;2024-03-07T00:00:21;102498.94;;;1.51;77.37
75551;BME280;65071;53.082;18.218;2024-03-07T00:03:08;102495.69;;;1.46;77.34
75551;BME280;65071;53.082;18.218;2024-03-07T00:05:34;102499.13;;;1.44;77.08
75551;BME280;65071;53.082;18.218;2024-03-07T00:08:01;102504.54;;;1.42;78.00
75551;BME280;65071;53.082;18.218;2024-03-07T00:10:27;102505.34;;;1.40;77.94
75551;BME280;65071;53.082;18.218;2024-03-07T00:12:53;102503.30;;;1.37;77.93
75551;BME280;65071;53.082;18.218;2024-03-07T00:15:20;102500.66;;;1.36;77.82
75551;BME280;65071;53.082;18.218;2024-03-07T00:17:47;102498.80;;;1.33;78.45
75551;BME280;65071;53.082;18.218;2024-03-07T00:20:13;102500.27;;;1.32;78.32
75551;BME280;65071;53.082;18.218;2024-03-07T00:22:45;102498.91;;;1.30;78.73
75551;BME280;65071;53.082;18.218;2024-03-07T00:25:11;102497.92;;;1.28;78.79
75551;BME280;65071;53.082;18.218;2024-03-07T00:30:05;102495.23;;;1.23;78.81
75551;BME280;65071;53.082;18.218;2024-03-07T00:32:34;102500.77;;;1.22;78.45
75551;BME280;65071;53.082;18.218;2024-03-07T00:35:02;102497.67;;;1.20;79.27
75551;BME280;65071;53.082;18.218;2024-03-07T00:37:29;102498.94;;;1.19;78.39
75551;BME280;65071;53.082;18.218;2024-03-07T00:39:57;102495.09;;;1.18;78.07
75551;BME280;65071;53.082;18.218;2024-03-07T00:42:24;102496.20;;;1.16;78.10
75551;BME280;65071;53.082;18.218;2024-03-07T00:44:50;102495.96;;;1.13;78.16
75551;BME280;65071;53.082;18.218;2024-03-07T00:47:17;102491.48;;;1.09;77.99
75551;BME280;65071;53.082;18.218;2024-03-07T00:49:44;102492.88;;;1.04;78.01
75551;BME280;65071;53.082;18.218;2024-03-07T00:52:14;102495.73;;;0.99;77.98
75551;BME280;65071;53.082;18.218;2024-03-07T00:54:42;102497.61;;;0.96;78.28
75551;BME280;65071;53.082;18.218;2024-03-07T00:57:09;102493.70;;;0.90;78.65
75551;BME280;65071;53.082;18.218;2024-03-07T00:59:35;102489.81;;;0.84;78.28
75551;BME280;65071;53.082;18.218;2024-03-07T01:02:02;102494.21;;;0.80;78.53
75551;BME280;65071;53.082;18.218;2024-03-07T01:04:29;102494.55;;;0.75;78.54
75551;BME280;65071;53.082;18.218;2024-03-07T01:06:57;102492.38;;;0.70;78.46
75551;BME280;65071;53.082;18.218;2024-03-07T01:09:26;102497.61;;;0.67;78.26
75551;BME280;65071;53.082;18.218;2024-03-07T01:11:55;102493.98;;;0.64;78.30
75551;BME280;65071;53.082;18.218;2024-03-07T01:14:22;102491.88;;;0.64;78.12
75551;BME280;65071;53.082;18.218;2024-03-07T01:16:49;102496.49;;;0.63;79.31
75551;BME280;65071;53.082;18.218;2024-03-07T01:19:15;102493.33;;;0.62;79.73
75551;BME280;65071;53.082;18.218;2024-03-07T01:21:42;102490.34;;;0.62;80.27
75551;BME280;65071;53.082;18.218;2024-03-07T01:24:08;102494.23;;;0.62;80.17
75551;BME280;65071;53.082;18.218;2024-03-07T01:26:35;102491.27;;;0.61;79.67
75551;BME280;65071;53.082;18.218;2024-03-07T01:29:01;102488.11;;;0.60;79.69
75551;BME280;65071;53.082;18.218;2024-03-07T01:31:27;102491.13;;;0.60;79.31
75551;BME280;65071;53.082;18.218;2024-03-07T01:33:54;102494.13;;;0.60;79.20
75551;BME280;65071;53.082;18.218;2024-03-07T01:36:20;102490.27;;;0.59;78.76
75551;BME280;65071;53.082;18.218;2024-03-07T01:38:47;102488.48;;;0.59;79.17
75551;BME280;65071;53.082;18.218;2024-03-07T01:41:14;102489.04;;;0.59;78.89
75551;BME280;65071;53.082;18.218;2024-03-07T01:43:43;102487.15;;;0.57;78.83
75551;BME280;65071;53.082;18.218;2024-03-07T01:46:10;102487.50;;;0.56;79.12
75551;BME280;65071;53.082;18.218;2024-03-07T01:48:38;102487.00;;;0.56;79.23
75551;BME280;65071;53.082;18.218;2024-03-07T01:51:06;102485.46;;;0.54;79.28
75551;BME280;65071;53.082;18.218;2024-03-07T01:53:33;102482.83;;;0.53;79.50
75551;BME280;65071;53.082;18.218;2024-03-07T01:56:02;102486.39;;;0.53;79.31
75551;BME280;65071;53.082;18.218;2024-03-07T01:58:29;102481.48;;;0.50;79.78
75551;BME280;65071;53.082;18.218;2024-03-07T02:00:58;102481.71;;;0.49;80.06
75551;BME280;65071;53.082;18.218;2024-03-07T02:03:25;102486.73;;;0.47;79.40
75551;BME280;65071;53.082;18.218;2024-03-07T02:05:52;102484.51;;;0.45;79.64
75551;BME280;65071;53.082;18.218;2024-03-07T02:08:18;102484.91;;;0.43;79.63
75551;BME280;65071;53.082;18.218;2024-03-07T02:10:45;102479.85;;;0.41;79.63
75551;BME280;65071;53.082;18.218;2024-03-07T02:13:12;102481.23;;;0.36;79.72
75551;BME280;65071;53.082;18.218;2024-03-07T02:15:38;102476.66;;;0.30;79.54
75551;BME280;65071;53.082;18.218;2024-03-07T02:18:05;102476.56;;;0.21;79.52
75551;BME280;65071;53.082;18.218;2024-03-07T02:20:32;102475.42;;;0.11;79.08
75551;BME280;65071;53.082;18.218;2024-03-07T02:22:59;102472.50;;;0.03;79.10
75551;BME280;65071;53.082;18.218;2024-03-07T02:25:25;102471.18;;;-0.08;79.11
75551;BME280;65071;53.082;18.218;2024-03-07T02:27:51;102476.74;;;-0.16;79.02
75551;BME280;65071;53.082;18.218;2024-03-07T02:30:17;102473.11;;;-0.25;78.97
75551;BME280;65071;53.082;18.218;2024-03-07T02:32:46;102475.61;;;-0.32;78.93
75551;BME280;65071;53.082;18.218;2024-03-07T02:35:18;102472.67;;;-0.41;78.84
75551;BME280;65071;53.082;18.218;2024-03-07T02:37:45;102476.98;;;-0.50;78.89
75551;BME280;65071;53.082;18.218;2024-03-07T02:40:12;102480.59;;;-0.59;79.30
75551;BME280;65071;53.082;18.218;2024-03-07T02:42:39;102482.39;;;-0.67;79.18
75551;BME280;65071;53.082;18.218;2024-03-07T02:45:05;102481.67;;;-0.75;79.23
75551;BME280;65071;53.082;18.218;2024-03-07T02:47:32;102484.86;;;-0.81;79.48
75551;BME280;65071;53.082;18.218;2024-03-07T02:49:59;102489.41;;;-0.86;79.53
75551;BME280;65071;53.082;18.218;2024-03-07T02:52:25;102487.64;;;-0.93;79.53
75551;BME280;65071;53.082;18.218;2024-03-07T02:54:51;102487.60;;;-0.99;79.93
75551;BME280;65071;53.082;18.218;2024-03-07T02:57:18;102487.39;;;-1.04;79.85
75551;BME280;65071;53.082;18.218;2024-03-07T02:59:44;102489.98;;;-1.09;79.99
75551;BME280;65071;53.082;18.218;2024-03-07T03:02:10;102493.05;;;-1.12;79.72
75551;BME280;65071;53.082;18.218;2024-03-07T03:04:37;102489.96;;;-1.15;79.78
75551;BME280;65071;53.082;18.218;2024-03-07T03:07:04;102493.40;;;-1.19;79.89
75551;BME280;65071;53.082;18.218;2024-03-07T03:09:30;102493.17;;;-1.24;80.20
75551;BME280;65071;53.082;18.218;2024-03-07T03:11:56;102493.80;;;-1.29;80.13
75551;BME280;65071;53.082;18.218;2024-03-07T03:14:23;102492.51;;;-1.33;80.13
75551;BME280;65071;53.082;18.218;2024-03-07T03:16:49;102495.76;;;-1.37;79.91
75551;BME280;65071;53.082;18.218;2024-03-07T03:19:16;102489.66;;;-1.40;80.11
75551;BME280;65071;53.082;18.218;2024-03-07T03:21:42;102490.59;;;-1.42;80.28
75551;BME280;65071;53.082;18.218;2024-03-07T03:24:09;102494.19;;;-1.46;80.40
75551;BME280;65071;53.082;18.218;2024-03-07T03:26:35;102498.28;;;-1.47;80.28
75551;BME280;65071;53.082;18.218;2024-03-07T03:29:01;102494.42;;;-1.48;80.14
75551;BME280;65071;53.082;18.218;2024-03-07T03:31:28;102493.42;;;-1.51;80.63
75551;BME280;65071;53.082;18.218;2024-03-07T03:33:55;102492.06;;;-1.53;80.58
75551;BME280;65071;53.082;18.218;2024-03-07T03:36:21;102490.52;;;-1.54;80.67
75551;BME280;65071;53.082;18.218;2024-03-07T03:38:48;102494.44;;;-1.56;80.86
75551;BME280;65071;53.082;18.218;2024-03-07T03:41:15;102491.81;;;-1.58;80.85
75551;BME280;65071;53.082;18.218;2024-03-07T03:43:42;102494.31;;;-1.59;80.90
75551;BME280;65071;53.082;18.218;2024-03-07T03:46:10;102496.47;;;-1.60;81.11
75551;BME280;65071;53.082;18.218;2024-03-07T03:48:39;102494.39;;;-1.63;80.89
75551;BME280;65071;53.082;18.218;2024-03-07T03:51:07;102496.75;;;-1.65;80.85
75551;BME280;65071;53.082;18.218;2024-03-07T03:53:34;102496.83;;;-1.69;80.84
75551;BME280;65071;53.082;18.218;2024-03-07T03:56:01;102490.38;;;-1.72;81.29
75551;BME280;65071;53.082;18.218;2024-03-07T03:58:27;102492.19;;;-1.75;81.05
75551;BME280;65071;53.082;18.218;2024-03-07T04:00:54;102491.39;;;-1.78;80.82
75551;BME280;65071;53.082;18.218;2024-03-07T04:03:21;102493.20;;;-1.80;80.55
75551;BME280;65071;53.082;18.218;2024-03-07T04:05:47;102490.45;;;-1.84;80.99
75551;BME280;65071;53.082;18.218;2024-03-07T04:08:13;102490.13;;;-1.85;80.91
75551;BME280;65071;53.082;18.218;2024-03-07T04:10:40;102489.85;;;-1.89;81.34
75551;BME280;65071;53.082;18.218;2024-03-07T04:13:06;102489.89;;;-1.91;81.33
75551;BME280;65071;53.082;18.218;2024-03-07T04:15:34;102484.63;;;-1.92;81.32
75551;BME280;65071;53.082;18.218;2024-03-07T04:18:03;102485.20;;;-1.94;81.72
75551;BME280;65071;53.082;18.218;2024-03-07T04:20:30;102482.27;;;-1.98;81.61
75551;BME280;65071;53.082;18.218;2024-03-07T04:22:56;102488.86;;;-2.00;81.45
75551;BME280;65071;53.082;18.218;2024-03-07T04:25:22;102490.65;;;-2.02;81.55
75551;BME280;65071;53.082;18.218;2024-03-07T04:27:50;102493.86;;;-2.03;81.57
75551;BME280;65071;53.082;18.218;2024-03-07T04:30:17;102498.29;;;-2.05;81.81
75551;BME280;65071;53.082;18.218;2024-03-07T04:32:43;102501.69;;;-2.07;81.55
75551;BME280;65071;53.082;18.218;2024-03-07T04:35:10;102499.78;;;-2.08;81.77
75551;BME280;65071;53.082;18.218;2024-03-07T04:37:37;102504.56;;;-2.10;81.79
75551;BME280;65071;53.082;18.218;2024-03-07T04:40:04;102503.19;;;-2.11;81.90
75551;BME280;65071;53.082;18.218;2024-03-07T04:42:31;102501.46;;;-2.14;81.82
75551;BME280;65071;53.082;18.218;2024-03-07T04:44:57;102503.79;;;-2.15;82.05
75551;BME280;65071;53.082;18.218;2024-03-07T04:49:50;102505.06;;;-2.17;82.14
75551;BME280;65071;53.082;18.218;2024-03-07T04:52:16;102500.69;;;-2.19;82.18
75551;BME280;65071;53.082;18.218;2024-03-07T04:54:43;102501.24;;;-2.21;82.30
75551;BME280;65071;53.082;18.218;2024-03-07T04:57:09;102501.83;;;-2.23;82.63
75551;BME280;65071;53.082;18.218;2024-03-07T04:59:36;102505.04;;;-2.25;82.39
75551;BME280;65071;53.082;18.218;2024-03-07T05:02:02;102507.90;;;-2.28;82.87
75551;BME280;65071;53.082;18.218;2024-03-07T05:04:29;102511.44;;;-2.28;83.28
75551;BME280;65071;53.082;18.218;2024-03-07T05:06:56;102510.88;;;-2.26;84.10
75551;BME280;65071;53.082;18.218;2024-03-07T05:09:23;102510.16;;;-2.26;84.15
75551;BME280;65071;53.082;18.218;2024-03-07T05:11:52;102508.34;;;-2.23;85.20
75551;BME280;65071;53.082;18.218;2024-03-07T05:14:19;102512.90;;;-2.22;85.05
75551;BME280;65071;53.082;18.218;2024-03-07T05:16:46;102513.55;;;-2.18;85.26
75551;BME280;65071;53.082;18.218;2024-03-07T05:19:28;102515.16;;;-2.11;84.70
75551;BME280;65071;53.082;18.218;2024-03-07T05:21:55;102519.42;;;-2.04;84.99
75551;BME280;65071;53.082;18.218;2024-03-07T05:24:22;102517.15;;;-1.96;83.79
75551;BME280;65071;53.082;18.218;2024-03-07T05:26:48;102524.38;;;-1.87;83.41
75551;BME280;65071;53.082;18.218;2024-03-07T05:29:15;102517.83;;;-1.77;83.15
75551;BME280;65071;53.082;18.218;2024-03-07T05:31:43;102522.38;;;-1.68;84.79
75551;BME280;65071;53.082;18.218;2024-03-07T05:34:16;102525.51;;;-1.58;84.54
75551;BME280;65071;53.082;18.218;2024-03-07T05:36:48;102524.61;;;-1.49;83.85
75551;BME280;65071;53.082;18.218;2024-03-07T05:39:15;102527.41;;;-1.40;85.01
75551;BME280;65071;53.082;18.218;2024-03-07T05:41:43;102527.73;;;-1.31;85.67
75551;BME280;65071;53.082;18.218;2024-03-07T05:44:11;102532.81;;;-1.21;85.00
75551;BME280;65071;53.082;18.218;2024-03-07T05:46:39;102528.89;;;-1.12;84.77
75551;BME280;65071;53.082;18.218;2024-03-07T05:49:13;102529.88;;;-1.02;85.25
75551;BME280;65071;53.082;18.218;2024-03-07T05:51:40;102527.19;;;-0.92;84.65
75551;BME280;65071;53.082;18.218;2024-03-07T05:54:11;102533.15;;;-0.83;84.61
75551;BME280;65071;53.082;18.218;2024-03-07T05:56:39;102533.98;;;-0.74;84.69
75551;BME280;65071;53.082;18.218;2024-03-07T05:59:07;102536.89;;;-0.64;84.17
75551;BME280;65071;53.082;18.218;2024-03-07T06:01:33;102535.20;;;-0.53;83.79
75551;BME280;65071;53.082;18.218;2024-03-07T06:04:02;102532.45;;;-0.42;83.77
75551;BME280;65071;53.082;18.218;2024-03-07T06:06:29;102534.81;;;-0.32;83.87
75551;BME280;65071;53.082;18.218;2024-03-07T06:09:00;102533.84;;;-0.22;84.16
75551;BME280;65071;53.082;18.218;2024-03-07T06:11:26;102535.75;;;-0.14;84.07
75551;BME280;65071;53.082;18.218;2024-03-07T06:13:53;102531.39;;;-0.04;83.56
75551;BME280;65071;53.082;18.218;2024-03-07T06:16:19;102535.41;;;0.11;83.64
75551;BME280;65071;53.082;18.218;2024-03-07T06:18:46;102534.86;;;0.24;83.39
75551;BME280;65071;53.082;18.218;2024-03-07T06:21:13;102533.58;;;0.37;83.16
75551;BME280;65071;53.082;18.218;2024-03-07T06:23:39;102535.15;;;0.50;82.97
75551;BME280;65071;53.082;18.218;2024-03-07T06:26:06;102534.45;;;0.61;83.02
75551;BME280;65071;53.082;18.218;2024-03-07T06:28:39;102538.19;;;0.72;83.12
75551;BME280;65071;53.082;18.218;2024-03-07T06:31:05;102541.52;;;0.84;82.92
75551;BME280;65071;53.082;18.218;2024-03-07T06:33:36;102543.77;;;0.97;82.58
75551;BME280;65071;53.082;18.218;2024-03-07T06:36:03;102545.91;;;1.07;82.28
75551;BME280;65071;53.082;18.218;2024-03-07T06:38:30;102542.72;;;1.19;82.10
75551;BME280;65071;53.082;18.218;2024-03-07T06:40:57;102543.14;;;1.27;81.57
75551;BME280;65071;53.082;18.218;2024-03-07T06:43:23;102546.67;;;1.38;81.62
75551;BME280;65071;53.082;18.218;2024-03-07T06:45:50;102548.89;;;1.52;81.25
75551;BME280;65071;53.082;18.218;2024-03-07T06:48:17;102549.89;;;1.64;81.19
75551;BME280;65071;53.082;18.218;2024-03-07T06:50:43;102544.53;;;1.75;80.79
75551;BME280;65071;53.082;18.218;2024-03-07T06:53:11;102545.55;;;1.86;80.88
75551;BME280;65071;53.082;18.218;2024-03-07T06:55:37;102546.91;;;1.98;80.00
75551;BME280;65071;53.082;18.218;2024-03-07T06:58:04;102547.16;;;2.06;79.96
75551;BME280;65071;53.082;18.218;2024-03-07T07:00:33;102546.61;;;2.16;79.38
75551;BME280;65071;53.082;18.218;2024-03-07T07:03:02;102545.45;;;2.28;79.70
75551;BME280;65071;53.082;18.218;2024-03-07T07:05:32;102544.77;;;2.36;78.85
75551;BME280;65071;53.082;18.218;2024-03-07T07:08:00;102548.16;;;2.41;78.25
75551;BME280;65071;53.082;18.218;2024-03-07T07:10:27;102547.23;;;2.42;77.79
75551;BME280;65071;53.082;18.218;2024-03-07T07:12:54;102550.25;;;2.51;78.36
75551;BME280;65071;53.082;18.218;2024-03-07T07:15:21;102550.14;;;2.59;77.19
75551;BME280;65071;53.082;18.218;2024-03-07T07:17:48;102552.37;;;2.61;76.44
75551;BME280;65071;53.082;18.218;2024-03-07T07:20:16;102552.52;;;2.66;77.27
75551;BME280;65071;53.082;18.218;2024-03-07T07:22:45;102550.98;;;2.69;76.45
75551;BME280;65071;53.082;18.218;2024-03-07T07:25:13;102559.40;;;2.72;75.73
75551;BME280;65071;53.082;18.218;2024-03-07T07:27:44;102556.66;;;2.78;76.32
75551;BME280;65071;53.082;18.218;2024-03-07T07:30:12;102557.68;;;2.88;76.44
75551;BME280;65071;53.082;18.218;2024-03-07T07:32:39;102561.86;;;2.90;74.67
75551;BME280;65071;53.082;18.218;2024-03-07T07:35:06;102562.91;;;2.91;74.07
75551;BME280;65071;53.082;18.218;2024-03-07T07:37:40;102554.76;;;2.91;73.91
75551;BME280;65071;53.082;18.218;2024-03-07T07:40:08;102562.77;;;3.04;74.51
75551;BME280;65071;53.082;18.218;2024-03-07T07:42:35;102556.29;;;3.10;73.62
75551;BME280;65071;53.082;18.218;2024-03-07T07:45:06;102560.23;;;3.18;73.08
75551;BME280;65071;53.082;18.218;2024-03-07T07:47:32;102561.08;;;3.24;73.46
75551;BME280;65071;53.082;18.218;2024-03-07T07:49:59;102559.04;;;3.29;73.53
75551;BME280;65071;53.082;18.218;2024-03-07T07:52:25;102561.70;;;3.38;73.43
75551;BME280;65071;53.082;18.218;2024-03-07T07:54:51;102551.70;;;3.40;72.44
75551;BME280;65071;53.082;18.218;2024-03-07T07:57:18;102557.44;;;3.51;72.13
75551;BME280;65071;53.082;18.218;2024-03-07T07:59:45;102555.88;;;3.50;71.01
75551;BME280;65071;53.082;18.218;2024-03-07T08:02:11;102550.63;;;3.60;72.19
75551;BME280;65071;53.082;18.218;2024-03-07T08:07:04;102547.79;;;3.81;73.06
75551;BME280;65071;53.082;18.218;2024-03-07T08:09:31;102551.44;;;3.91;72.45
75551;BME280;65071;53.082;18.218;2024-03-07T08:11:57;102547.31;;;3.99;72.00
75551;BME280;65071;53.082;18.218;2024-03-07T08:14:24;102547.51;;;4.07;70.79
75551;BME280;65071;53.082;18.218;2024-03-07T08:16:52;102543.02;;;4.08;70.33
75551;BME280;65071;53.082;18.218;2024-03-07T08:19:20;102546.08;;;4.19;70.74
75551;BME280;65071;53.082;18.218;2024-03-07T08:21:46;102543.48;;;4.14;68.99
75551;BME280;65071;53.082;18.218;2024-03-07T08:24:13;102538.05;;;4.23;68.65
75551;BME280;65071;53.082;18.218;2024-03-07T08:26:39;102538.52;;;4.29;67.91
75551;BME280;65071;53.082;18.218;2024-03-07T08:29:10;102541.30;;;4.34;68.17
75551;BME280;65071;53.082;18.218;2024-03-07T08:31:38;102537.20;;;4.34;68.38
75551;BME280;65071;53.082;18.218;2024-03-07T08:34:04;102537.23;;;4.33;67.60
75551;BME280;65071;53.082;18.218;2024-03-07T08:36:31;102537.46;;;4.40;68.57
75551;BME280;65071;53.082;18.218;2024-03-07T08:38:57;102532.20;;;4.42;67.19
75551;BME280;65071;53.082;18.218;2024-03-07T08:41:25;102532.75;;;4.46;68.09
75551;BME280;65071;53.082;18.218;2024-03-07T08:43:51;102538.48;;;4.56;68.34
75551;BME280;65071;53.082;18.218;2024-03-07T08:46:18;102533.45;;;4.58;67.37
75551;BME280;65071;53.082;18.218;2024-03-07T08:48:44;102537.92;;;4.65;68.15
75551;BME280;65071;53.082;18.218;2024-03-07T08:51:11;102540.45;;;4.68;67.08
75551;BME280;65071;53.082;18.218;2024-03-07T08:53:37;102534.08;;;4.67;66.89
75551;BME280;65071;53.082;18.218;2024-03-07T08:56:05;102535.60;;;4.68;67.09
75551;BME280;65071;53.082;18.218;2024-03-07T08:58:31;102532.23;;;4.76;67.18
75551;BME280;65071;53.082;18.218;2024-03-07T09:00:58;102533.73;;;4.85;67.26
75551;BME280;65071;53.082;18.218;2024-03-07T09:05:52;102532.27;;;4.93;67.23
75551;BME280;65071;53.082;18.218;2024-03-07T09:08:18;102531.65;;;4.98;67.43
75551;BME280;65071;53.082;18.218;2024-03-07T09:10:45;102533.45;;;4.94;66.29
75551;BME280;65071;53.082;18.218;2024-03-07T09:13:11;102533.80;;;5.02;66.29
75551;BME280;65071;53.082;18.218;2024-03-07T09:15:37;102533.67;;;5.12;66.88
75551;BME280;65071;53.082;18.218;2024-03-07T09:18:04;102530.06;;;5.09;65.37
